Time,TemperatureF,DewpointF,PressureIn,WindDirection,WindDirectionDegrees,WindSpeedMPH,WindSpeedGustMPH,Humidity,HourlyPrecipIn,Conditions,Clouds,dailyrainin,SoftwareType,DateUTC
2013-11-16 00:00:00,43.0,24.1,29.60,South,180,6.9,6.9,47,0.00,,,0.00,WUHU216HW,2013-11-16 06:00:00,
2013-11-16 00:05:00,43.2,24.3,29.59,SSE,158,7.2,7.2,47,0.00,,,0.00,WUHU216HW,2013-11-16 06:05:00,
2013-11-16 00:06:00,43.2,24.3,29.59,SSE,158,7.2,7.2,47,0.00,,,0.00,WUHU216HW,2013-11-16 06:06:00,
2013-11-16 00:10:00,43.2,24.3,29.59,SSE,158,7.2,7.2,47,0.00,,,0.00,WUHU216HW,2013-11-16 06:10:00,
2013-11-16 00:30:00,42.8,25.0,29.59,SE,135,6.9,6.9,49,0.00,,,0.00,WUHU216HW,2013-11-16 06:30:00,
2013-11-16 00:31:00,42.8,25.0,29.59,SE,135,6.9,6.9,49,0.00,,,0.00,WUHU216HW,2013-11-16 06:31:00,
2013-11-16 00:35:00,42.8,25.0,29.59,SE,135,6.9,6.9,49,0.00,,,0.00,WUHU216HW,2013-11-16 06:35:00,
2013-11-16 00:36:00,42.8,25.0,29.59,SE,135,6.9,6.9,49,0.00,,,0.00,WUHU216HW,2013-11-16 06:36:00,
2013-11-16 00:40:00,42.8,25.0,29.59,SE,135,6.9,6.9,49,0.00,,,0.00,WUHU216HW,2013-11-16 06:40:00,
2013-11-16 01:00:00,42.7,25.4,29.58,SE,135,4.0,4.0,50,0.00,,,0.00,WUHU216HW,2013-11-16 07:00:00,
2013-11-16 01:01:00,42.7,25.4,29.58,SE,135,5.4,5.4,50,0.00,,,0.00,WUHU216HW,2013-11-16 07:01:00,
2013-11-16 01:05:00,42.7,25.4,29.58,SE,135,5.4,5.4,50,0.00,,,0.00,WUHU216HW,2013-11-16 07:05:00,
2013-11-16 01:06:00,42.7,25.4,29.58,SE,135,5.4,5.4,50,0.00,,,0.00,WUHU216HW,2013-11-16 07:06:00,
2013-11-16 01:10:00,42.7,25.4,29.58,SE,135,5.4,5.4,50,0.00,,,0.00,WUHU216HW,2013-11-16 07:10:00,
2013-11-16 01:30:00,42.1,24.3,29.57,SE,135,5.1,5.1,49,0.00,,,0.00,WUHU216HW,2013-11-16 07:30:00,
2013-11-16 01:35:00,42.1,24.3,29.57,ENE,68,4.0,5.1,49,0.00,,,0.00,WUHU216HW,2013-11-16 07:35:00,
2013-11-16 01:36:00,42.1,24.3,29.57,ENE,68,4.0,5.1,49,0.00,,,0.00,WUHU216HW,2013-11-16 07:36:00,
2013-11-16 02:00:00,41.4,23.6,29.57,SSE,158,5.4,5.4,49,0.00,,,0.00,WUHU216HW,2013-11-16 08:00:00,
2013-11-16 02:05:00,41.4,23.6,29.57,SE,135,6.9,6.9,49,0.00,,,0.00,WUHU216HW,2013-11-16 08:05:00,
2013-11-16 02:30:00,41.0,22.2,29.56,SSE,158,6.9,6.9,47,0.00,,,0.00,WUHU216HW,2013-11-16 08:30:00,
2013-11-16 02:31:00,41.0,22.7,29.56,SSE,158,6.9,6.9,48,0.00,,,0.00,WUHU216HW,2013-11-16 08:31:00,
2013-11-16 02:35:00,41.0,22.7,29.56,SSE,158,6.9,6.9,48,0.00,,,0.00,WUHU216HW,2013-11-16 08:35:00,
2013-11-16 02:36:00,41.0,22.7,29.56,SSE,158,6.9,6.9,48,0.00,,,0.00,WUHU216HW,2013-11-16 08:36:00,
2013-11-16 03:00:00,41.0,21.7,29.55,SE,135,8.7,8.7,46,0.00,,,0.00,WUHU216HW,2013-11-16 09:00:00,
2013-11-16 03:05:00,41.0,21.7,29.55,SSE,158,7.2,8.7,46,0.00,,,0.00,WUHU216HW,2013-11-16 09:05:00,
2013-11-16 03:06:00,41.0,21.7,29.55,SSE,158,7.2,8.7,46,0.00,,,0.00,WUHU216HW,2013-11-16 09:06:00,
2013-11-16 03:30:00,40.7,19.8,29.54,SSE,158,6.3,6.3,43,0.00,,,0.00,WUHU216HW,2013-11-16 09:30:00,
2013-11-16 03:35:00,40.7,19.8,29.54,SE,135,4.7,6.3,43,0.00,,,0.00,WUHU216HW,2013-11-16 09:35:00,
2013-11-16 03:36:00,40.7,19.8,29.54,SE,135,4.7,6.3,43,0.00,,,0.00,WUHU216HW,2013-11-16 09:36:00,
2013-11-16 03:40:00,40.7,19.8,29.54,SE,135,4.7,6.3,43,0.00,,,0.00,WUHU216HW,2013-11-16 09:40:00,
2013-11-16 04:00:00,40.0,17.6,29.53,SSW,203,5.4,5.4,40,0.00,,,0.00,WUHU216HW,2013-11-16 10:00:00,
2013-11-16 04:05:00,40.0,17.6,29.53,SSE,158,4.7,5.4,40,0.00,,,0.00,WUHU216HW,2013-11-16 10:05:00,
2013-11-16 04:06:00,40.0,17.6,29.53,SSE,158,4.7,5.4,40,0.00,,,0.00,WUHU216HW,2013-11-16 10:06:00,
2013-11-16 04:10:00,40.0,17.6,29.53,SSE,158,4.7,5.4,40,0.00,,,0.00,WUHU216HW,2013-11-16 10:10:00,
2013-11-16 04:30:00,40.0,16.3,29.52,SE,135,6.7,6.7,38,0.00,,,0.00,WUHU216HW,2013-11-16 10:30:00,
2013-11-16 04:35:00,40.0,16.3,29.52,SE,135,6.5,6.7,38,0.00,,,0.00,WUHU216HW,2013-11-16 10:35:00,
2013-11-16 04:36:00,40.0,16.3,29.52,SE,135,6.5,6.7,38,0.00,,,0.00,WUHU216HW,2013-11-16 10:36:00,
2013-11-16 05:00:00,40.0,15.7,29.51,SE,135,3.4,3.4,37,0.00,,,0.00,WUHU216HW,2013-11-16 11:00:00,
2013-11-16 05:05:00,39.8,15.5,29.51,ESE,113,4.7,5.4,37,0.00,,,0.00,WUHU216HW,2013-11-16 11:05:00,
2013-11-16 05:06:00,39.8,15.5,29.51,ESE,113,4.7,5.4,37,0.00,,,0.00,WUHU216HW,2013-11-16 11:06:00,
2013-11-16 05:10:00,39.8,15.5,29.51,ESE,113,4.7,5.4,37,0.00,,,0.00,WUHU216HW,2013-11-16 11:10:00,
2013-11-16 05:30:00,39.6,12.7,29.50,SE,135,4.3,4.3,33,0.00,,,0.00,WUHU216HW,2013-11-16 11:30:00,
2013-11-16 05:31:00,39.6,12.7,29.50,East,90,5.6,5.6,33,0.00,,,0.00,WUHU216HW,2013-11-16 11:31:00,
2013-11-16 05:35:00,39.6,12.7,29.50,East,90,5.6,5.6,33,0.00,,,0.00,WUHU216HW,2013-11-16 11:35:00,
2013-11-16 05:36:00,39.6,12.7,29.50,East,90,5.6,5.6,33,0.00,,,0.00,WUHU216HW,2013-11-16 11:36:00,
2013-11-16 05:40:00,39.6,12.7,29.50,East,90,5.6,5.6,33,0.00,,,0.00,WUHU216HW,2013-11-16 11:40:00,
2013-11-16 06:00:00,40.0,10.2,29.48,ESE,113,6.9,6.9,29,0.00,,,0.00,WUHU216HW,2013-11-16 12:00:00,
2013-11-16 06:05:00,40.0,10.2,29.48,ESE,113,8.5,8.5,29,0.00,,,0.00,WUHU216HW,2013-11-16 12:05:00,
2013-11-16 06:06:00,40.0,10.2,29.48,ESE,113,8.5,8.5,29,0.00,,,0.00,WUHU216HW,2013-11-16 12:06:00,
2013-11-16 06:10:00,40.0,10.2,29.48,ESE,113,8.5,8.5,29,0.00,,,0.00,WUHU216HW,2013-11-16 12:10:00,
2013-11-16 06:30:00,40.0,8.4,29.49,SE,135,4.7,4.7,27,0.00,,,0.00,WUHU216HW,2013-11-16 12:30:00,
2013-11-16 06:35:00,40.0,8.4,29.49,SE,135,4.7,4.7,27,0.00,,,0.00,WUHU216HW,2013-11-16 12:35:00,
2013-11-16 06:36:00,40.0,8.4,29.49,SE,135,4.7,4.7,27,0.00,,,0.00,WUHU216HW,2013-11-16 12:36:00,
2013-11-16 06:37:00,40.0,8.4,29.49,SE,135,4.7,4.7,27,0.00,,,0.00,WUHU216HW,2013-11-16 12:37:00,
2013-11-16 07:00:00,40.0,3.0,29.47,SE,135,5.4,5.4,21,0.00,,,0.00,WUHU216HW,2013-11-16 13:00:00,
2013-11-16 07:05:00,40.0,3.0,29.48,SE,135,4.0,5.4,21,0.00,,,0.00,WUHU216HW,2013-11-16 13:05:00,
2013-11-16 07:30:00,40.7,-5.8,29.47,SE,135,4.7,4.7,14,0.00,,,0.00,WUHU216HW,2013-11-16 13:30:00,
2013-11-16 07:31:00,40.7,-5.8,29.47,SE,135,6.5,6.5,14,0.00,,,0.00,WUHU216HW,2013-11-16 13:31:00,
2013-11-16 07:35:00,40.7,-5.8,29.47,SE,135,6.5,6.5,14,0.00,,,0.00,WUHU216HW,2013-11-16 13:35:00,
2013-11-16 07:36:00,40.7,-5.8,29.47,SE,135,6.5,6.5,14,0.00,,,0.00,WUHU216HW,2013-11-16 13:36:00,
2013-11-16 07:40:00,40.7,-5.8,29.47,SE,135,6.5,6.5,14,0.00,,,0.00,WUHU216HW,2013-11-16 13:40:00,
2013-11-16 08:00:00,41.8,-3.6,29.47,SE,135,7.8,7.8,15,0.00,,,0.00,WUHU216HW,2013-11-16 14:00:00,
2013-11-16 08:05:00,41.8,-3.6,29.47,ESE,113,5.4,7.8,15,0.00,,,0.00,WUHU216HW,2013-11-16 14:05:00,
2013-11-16 08:06:00,41.8,-3.6,29.47,ESE,113,5.4,7.8,15,0.00,,,0.00,WUHU216HW,2013-11-16 14:06:00,
2013-11-16 08:10:00,41.8,-3.6,29.47,ESE,113,5.4,5.4,15,0.00,,,0.00,WUHU216HW,2013-11-16 14:10:00,
2013-11-16 08:30:00,43.0,-1.2,29.46,SSE,158,8.1,8.1,16,0.00,,,0.00,WUHU216HW,2013-11-16 14:30:00,
2013-11-16 08:31:00,43.0,-1.2,29.46,SSE,150,7.9,8.1,16,0.00,,,0.00,WUHU216HW,2013-11-16 14:31:00,
2013-11-16 08:35:00,43.0,-1.2,29.46,SE,135,7.6,8.1,16,0.00,,,0.00,WUHU216HW,2013-11-16 14:35:00,
2013-11-16 08:36:00,43.0,-1.2,29.46,SE,135,7.6,8.1,16,0.00,,,0.00,WUHU216HW,2013-11-16 14:36:00,
2013-11-16 09:00:00,43.9,2.5,29.46,SE,135,7.4,7.4,18,0.00,,,0.00,WUHU216HW,2013-11-16 15:00:00,
2013-11-16 09:01:00,43.9,2.5,29.46,SE,139,6.9,7.4,18,0.00,,,0.00,WUHU216HW,2013-11-16 15:01:00,
2013-11-16 09:05:00,43.9,2.5,29.46,SSE,158,5.6,7.4,18,0.00,,,0.00,WUHU216HW,2013-11-16 15:05:00,
2013-11-16 09:06:00,43.9,2.5,29.46,SSE,158,5.6,7.4,18,0.00,,,0.00,WUHU216HW,2013-11-16 15:06:00,
2013-11-16 09:10:00,43.9,2.5,29.46,SSE,158,5.6,7.4,18,0.00,,,0.00,WUHU216HW,2013-11-16 15:10:00,
2013-11-16 09:30:00,44.5,5.9,29.46,ESE,113,7.6,7.6,20,0.00,,,0.00,WUHU216HW,2013-11-16 15:30:00,
2013-11-16 09:31:00,44.5,5.9,29.46,ESE,113,7.6,7.6,20,0.00,,,0.00,WUHU216HW,2013-11-16 15:31:00,
2013-11-16 09:35:00,44.5,5.9,29.46,ESE,113,7.6,7.6,20,0.00,,,0.00,WUHU216HW,2013-11-16 15:35:00,
2013-11-16 09:36:00,44.5,5.9,29.46,ESE,113,7.6,7.6,20,0.00,,,0.00,WUHU216HW,2013-11-16 15:36:00,
2013-11-16 10:00:00,45.4,6.7,29.45,SSE,158,7.2,7.2,20,0.00,,,0.00,WUHU216HW,2013-11-16 16:00:00,
2013-11-16 10:01:00,45.4,6.7,29.45,ESE,113,10.7,10.7,20,0.00,,,0.00,WUHU216HW,2013-11-16 16:01:00,
2013-11-16 10:05:00,45.4,6.7,29.45,ESE,113,10.7,10.7,20,0.00,,,0.00,WUHU216HW,2013-11-16 16:05:00,
2013-11-16 10:06:00,45.4,6.7,29.45,ESE,113,10.7,10.7,20,0.00,,,0.00,WUHU216HW,2013-11-16 16:06:00,
2013-11-16 10:10:00,45.4,6.7,29.45,ESE,113,10.7,10.7,20,0.00,,,0.00,WUHU216HW,2013-11-16 16:10:00,
2013-11-16 10:30:00,45.7,2.5,29.45,SSE,158,10.5,10.5,17,0.00,,,0.00,WUHU216HW,2013-11-16 16:30:00,
2013-11-16 10:31:00,45.7,1.1,29.45,SSE,153,8.3,10.5,16,0.00,,,0.00,WUHU216HW,2013-11-16 16:31:00,
2013-11-16 10:35:00,45.7,1.1,29.45,SSE,158,4.7,10.5,16,0.00,,,0.00,WUHU216HW,2013-11-16 16:35:00,
2013-11-16 10:36:00,45.7,1.1,29.45,SSE,158,4.7,10.5,16,0.00,,,0.00,WUHU216HW,2013-11-16 16:36:00,
2013-11-16 10:40:00,45.7,1.1,29.45,SSE,158,4.7,10.5,16,0.00,,,0.00,WUHU216HW,2013-11-16 16:40:00,
2013-11-16 11:00:00,45.7,-7.7,29.44,ESE,113,10.5,10.5,10,0.00,,,0.00,WUHU216HW,2013-11-16 17:00:00,
2013-11-16 11:05:00,45.7,-7.7,29.44,SE,135,9.6,10.5,10,0.00,,,0.00,WUHU216HW,2013-11-16 17:05:00,
2013-11-16 11:06:00,45.7,-7.7,29.44,SE,135,9.6,10.5,10,0.00,,,0.00,WUHU216HW,2013-11-16 17:06:00,
2013-11-16 11:30:00,45.4,-8.1,29.41,SSE,158,4.7,4.7,1,0.00,,,0.00,WUHU216HW,2013-11-16 17:30:00,
2013-11-16 11:35:00,45.4,-8.1,29.41,ESE,113,4.0,4.7,1,0.00,,,0.00,WUHU216HW,2013-11-16 17:35:00,
2013-11-16 11:36:00,45.4,-8.1,29.41,ESE,113,4.0,4.7,1,0.00,,,0.00,WUHU216HW,2013-11-16 17:36:00,
2013-11-16 11:40:00,45.4,-8.1,29.41,ESE,113,4.0,4.7,1,0.00,,,0.00,WUHU216HW,2013-11-16 17:40:00,
2013-11-16 12:00:00,45.4,-8.1,29.40,SE,135,8.1,8.1,1,0.00,,,0.00,WUHU216HW,2013-11-16 18:00:00,
2013-11-16 12:05:00,45.4,-8.1,29.40,East,90,6.9,8.1,1,0.00,,,0.00,WUHU216HW,2013-11-16 18:05:00,
2013-11-16 12:06:00,45.4,-8.1,29.40,East,90,6.9,8.1,1,0.00,,,0.00,WUHU216HW,2013-11-16 18:06:00,
2013-11-16 12:10:00,45.4,-8.1,29.40,East,90,6.9,6.9,1,0.00,,,0.00,WUHU216HW,2013-11-16 18:10:00,
2013-11-16 12:30:00,45.5,-7.9,29.38,SE,135,4.0,4.0,1,0.00,,,0.00,WUHU216HW,2013-11-16 18:30:00,
2013-11-16 12:31:00,45.4,-8.1,29.38,SE,135,6.3,6.3,1,0.00,,,0.00,WUHU216HW,2013-11-16 18:31:00,
2013-11-16 12:35:00,45.4,-8.1,29.38,SE,135,6.3,6.3,1,0.00,,,0.00,WUHU216HW,2013-11-16 18:35:00,
2013-11-16 12:36:00,45.4,-8.1,29.38,SE,135,6.3,6.3,1,0.00,,,0.00,WUHU216HW,2013-11-16 18:36:00,
2013-11-16 13:30:00,45.0,-8.4,29.34,East,90,13.4,13.4,1,0.02,,,0.00,WUHU216HW,2013-11-16 19:30:00,
2013-11-16 13:31:00,45.0,-8.4,29.34,East,90,13.4,13.4,1,0.02,,,0.00,WUHU216HW,2013-11-16 19:31:00,
2013-11-16 13:35:00,45.0,-8.4,29.34,East,90,13.4,13.4,1,0.02,,,0.00,WUHU216HW,2013-11-16 19:35:00,
2013-11-16 13:36:00,45.0,-8.4,29.34,East,90,13.4,13.4,1,0.02,,,0.00,WUHU216HW,2013-11-16 19:36:00,
2013-11-16 14:00:00,44.8,-8.4,29.32,SE,135,7.8,7.8,1,0.09,,,0.02,WUHU216HW,2013-11-16 20:00:00,
2013-11-16 14:05:00,44.8,-8.4,29.32,SE,135,7.8,7.8,1,0.09,,,0.02,WUHU216HW,2013-11-16 20:05:00,
2013-11-16 14:06:00,44.8,-8.4,29.32,SE,135,7.8,7.8,1,0.09,,,0.02,WUHU216HW,2013-11-16 20:06:00,
2013-11-16 14:30:00,45.2,-8.2,29.30,ESE,113,5.6,5.6,1,0.10,,,0.10,WUHU216HW,2013-11-16 20:30:00,
2013-11-16 14:31:00,45.2,-8.2,29.30,ESE,113,5.6,5.6,1,0.10,,,0.10,WUHU216HW,2013-11-16 20:31:00,
2013-11-16 14:35:00,45.2,-8.2,29.30,ESE,113,5.6,5.6,1,0.10,,,0.10,WUHU216HW,2013-11-16 20:35:00,
2013-11-16 14:36:00,45.2,-8.2,29.30,ESE,113,5.6,5.6,1,0.10,,,0.10,WUHU216HW,2013-11-16 20:36:00,
2013-11-16 15:30:00,44.8,-8.4,29.28,ESE,113,4.0,4.0,1,0.02,,,0.14,WUHU216HW,2013-11-16 21:30:00,
2013-11-16 15:32:00,44.8,-8.4,29.28,ESE,113,4.0,4.0,1,0.02,,,0.14,WUHU216HW,2013-11-16 21:32:00,
2013-11-16 15:35:00,44.8,-8.4,29.28,ESE,113,4.0,4.0,1,0.02,,,0.14,WUHU216HW,2013-11-16 21:35:00,
2013-11-16 15:37:00,44.8,-8.4,29.28,ESE,113,4.0,4.0,1,0.02,,,0.14,WUHU216HW,2013-11-16 21:37:00,
2013-11-16 16:00:00,44.8,-8.4,29.26,SE,135,6.9,6.9,1,0.01,,,0.16,WUHU216HW,2013-11-16 22:00:00,
2013-11-16 16:01:00,44.8,-8.4,29.26,SE,132,5.1,6.9,1,0.01,,,0.16,WUHU216HW,2013-11-16 22:01:00,
2013-11-16 16:03:00,44.8,-8.4,29.26,ESE,113,4.7,4.7,1,0.01,,,0.16,WUHU216HW,2013-11-16 22:03:00,
2013-11-16 16:05:00,44.8,-8.4,29.26,ESE,113,4.7,6.9,1,0.01,,,0.16,WUHU216HW,2013-11-16 22:05:00,
2013-11-16 16:06:00,44.8,-8.4,29.26,ESE,113,4.7,6.9,1,0.01,,,0.16,WUHU216HW,2013-11-16 22:06:00,
2013-11-16 16:10:00,44.8,-8.4,29.26,ESE,113,4.7,6.0,1,0.01,,,0.16,WUHU216HW,2013-11-16 22:10:00,
2013-11-16 16:11:00,44.8,-8.4,29.26,ESE,113,4.7,6.0,1,0.01,,,0.16,WUHU216HW,2013-11-16 22:11:00,
2013-11-16 16:33:00,44.8,-8.4,29.25,East,90,0.9,0.9,1,0.00,,,0.16,WUHU216HW,2013-11-16 22:33:00,
2013-11-16 16:38:00,44.6,-8.6,29.25,NNE,23,1.1,1.1,1,0.00,,,0.16,WUHU216HW,2013-11-16 22:38:00,
2013-11-16 16:43:00,44.6,-8.6,29.25,NNE,23,1.1,1.1,1,0.00,,,0.16,WUHU216HW,2013-11-16 22:43:00,
2013-11-16 17:00:00,44.8,-8.4,29.24,ESE,113,0.7,0.7,1,0.01,,,0.16,WUHU216HW,2013-11-16 23:00:00,
2013-11-16 17:01:00,44.8,-8.4,29.24,ESE,113,0.9,0.9,1,0.01,,,0.16,WUHU216HW,2013-11-16 23:01:00,
2013-11-16 17:05:00,44.8,-8.4,29.24,ESE,113,0.9,0.9,1,0.01,,,0.16,WUHU216HW,2013-11-16 23:05:00,
2013-11-16 17:06:00,44.8,-8.4,29.24,ESE,113,0.9,0.9,1,0.01,,,0.16,WUHU216HW,2013-11-16 23:06:00,
2013-11-16 17:07:00,44.8,-8.4,29.24,ESE,113,0.9,0.9,1,0.01,,,0.16,WUHU216HW,2013-11-16 23:07:00,
2013-11-16 17:30:00,44.6,-8.6,29.24,NE,45,0.4,0.4,1,0.01,,,0.16,WUHU216HW,2013-11-16 23:30:00,
2013-11-16 17:31:00,44.8,-8.4,29.24,NE,45,0.9,0.9,1,0.01,,,0.16,WUHU216HW,2013-11-16 23:31:00,
2013-11-16 17:35:00,44.8,-8.4,29.24,NE,45,0.9,0.9,1,0.01,,,0.16,WUHU216HW,2013-11-16 23:35:00,
2013-11-16 17:36:00,44.8,-8.4,29.24,NE,45,0.9,0.9,1,0.01,,,0.16,WUHU216HW,2013-11-16 23:36:00,
2013-11-16 17:37:00,44.8,-8.4,29.24,NE,45,0.9,0.9,1,0.01,,,0.16,WUHU216HW,2013-11-16 23:37:00,
2013-11-16 17:40:00,44.8,-8.4,29.24,NE,45,0.9,0.9,1,0.01,,,0.16,WUHU216HW,2013-11-16 23:40:00,
2013-11-16 18:00:00,45.0,-8.4,29.24,NE,45,0.4,0.4,1,0.00,,,0.16,WUHU216HW,2013-11-17 00:00:00,
2013-11-16 18:01:00,45.0,-8.4,29.24,NE,45,0.4,0.4,1,0.00,,,0.16,WUHU216HW,2013-11-17 00:01:00,
2013-11-16 18:05:00,45.0,-8.4,29.24,NE,45,0.4,0.4,1,0.00,,,0.16,WUHU216HW,2013-11-17 00:05:00,
2013-11-16 18:06:00,45.0,-8.4,29.24,NE,45,0.4,0.4,1,0.00,,,0.16,WUHU216HW,2013-11-17 00:06:00,
2013-11-16 18:10:00,45.0,-8.4,29.24,NE,45,0.4,0.4,1,0.00,,,0.16,WUHU216HW,2013-11-17 00:10:00,
2013-11-16 18:30:00,45.0,-8.4,29.24,North,0,4.0,4.0,1,0.00,,,0.16,WUHU216HW,2013-11-17 00:30:00,
2013-11-16 18:35:00,45.0,-8.4,29.24,NE,45,2.7,4.0,1,0.00,,,0.16,WUHU216HW,2013-11-17 00:35:00,
2013-11-16 18:36:00,45.0,-8.4,29.24,NE,45,2.7,4.0,1,0.00,,,0.16,WUHU216HW,2013-11-17 00:36:00,
2013-11-16 18:40:00,45.0,-8.4,29.24,NE,45,2.7,2.7,1,0.00,,,0.16,WUHU216HW,2013-11-17 00:40:00,
2013-11-16 19:00:00,44.8,-8.4,29.25,North,0,2.5,2.5,1,0.00,,,0.16,WUHU216HW,2013-11-17 01:00:00,
2013-11-16 19:05:00,44.8,-8.4,29.24,North,0,2.5,2.5,1,0.00,,,0.16,WUHU216HW,2013-11-17 01:05:00,
2013-11-16 19:06:00,44.8,-8.4,29.24,North,0,2.5,2.5,1,0.00,,,0.16,WUHU216HW,2013-11-17 01:06:00,
2013-11-16 19:10:00,44.8,-8.4,29.24,North,0,2.5,2.5,1,0.00,,,0.16,WUHU216HW,2013-11-17 01:10:00,
2013-11-16 19:30:00,44.6,-8.6,29.24,NNE,23,4.0,4.0,1,0.00,,,0.16,WUHU216HW,2013-11-17 01:30:00,
2013-11-16 19:31:00,44.6,-8.6,29.24,NNE,24,4.0,4.3,1,0.00,,,0.16,WUHU216HW,2013-11-17 01:31:00,
2013-11-16 19:35:00,44.6,-8.6,29.24,North,0,3.6,4.3,1,0.00,,,0.16,WUHU216HW,2013-11-17 01:35:00,
2013-11-16 19:36:00,44.6,-8.6,29.24,North,0,3.6,4.3,1,0.00,,,0.16,WUHU216HW,2013-11-17 01:36:00,
2013-11-16 19:40:00,44.6,-8.6,29.24,North,0,3.6,4.3,1,0.00,,,0.16,WUHU216HW,2013-11-17 01:40:00,
2013-11-16 20:00:00,44.5,-8.8,29.25,North,0,2.0,2.0,1,0.00,,,0.16,WUHU216HW,2013-11-17 02:00:00,
2013-11-16 20:05:00,44.5,-8.8,29.25,North,0,0.9,2.0,1,0.00,,,0.16,WUHU216HW,2013-11-17 02:05:00,
2013-11-16 20:06:00,44.5,-8.8,29.25,North,0,0.9,2.0,1,0.00,,,0.16,WUHU216HW,2013-11-17 02:06:00,
2013-11-16 20:10:00,44.5,-8.8,29.25,North,0,0.9,0.9,1,0.00,,,0.16,WUHU216HW,2013-11-17 02:10:00,
2013-11-16 20:30:00,44.3,-8.9,29.25,North,0,0.2,0.2,1,0.01,,,0.16,WUHU216HW,2013-11-17 02:30:00,
2013-11-16 20:31:00,44.3,-8.9,29.25,North,0,0.2,0.2,1,0.01,,,0.17,WUHU216HW,2013-11-17 02:31:00,
2013-11-16 20:35:00,44.3,-8.9,29.25,North,0,0.2,0.2,1,0.01,,,0.17,WUHU216HW,2013-11-17 02:35:00,
2013-11-16 20:36:00,44.3,-8.9,29.25,North,0,0.2,0.2,1,0.01,,,0.17,WUHU216HW,2013-11-17 02:36:00,
2013-11-16 20:37:00,44.3,-8.9,29.25,North,0,0.2,0.2,1,0.01,,,0.17,WUHU216HW,2013-11-17 02:37:00,
2013-11-16 20:40:00,44.3,-8.9,29.25,North,0,0.2,0.2,1,0.01,,,0.17,WUHU216HW,2013-11-17 02:40:00,
2013-11-16 21:00:00,44.1,-9.1,29.26,ENE,68,0.4,0.4,1,0.01,,,0.17,WUHU216HW,2013-11-17 03:00:00,
2013-11-16 21:05:00,44.1,-9.1,29.26,ENE,68,0.4,0.4,1,0.01,,,0.17,WUHU216HW,2013-11-17 03:05:00,
2013-11-16 22:30:00,45.7,-7.7,29.26,SSE,158,4.0,4.0,1,0.00,,,0.17,WUHU216HW,2013-11-17 04:30:00,
2013-11-16 22:31:00,45.7,-7.7,29.26,SSE,158,6.0,6.0,1,0.00,,,0.17,WUHU216HW,2013-11-17 04:31:00,
2013-11-16 22:35:00,45.7,-7.7,29.26,SSE,158,6.0,6.0,1,0.00,,,0.17,WUHU216HW,2013-11-17 04:35:00,
2013-11-16 22:40:00,45.7,-7.7,29.26,SSE,158,6.0,6.0,1,0.00,,,0.17,WUHU216HW,2013-11-17 04:40:00,
2013-11-16 22:41:00,45.7,-7.7,29.26,SSE,158,6.0,6.0,1,0.00,,,0.17,WUHU216HW,2013-11-17 04:41:00,
2013-11-16 23:00:00,46.3,-7.4,29.27,ESE,113,1.8,1.8,1,0.00,,,0.17,WUHU216HW,2013-11-17 05:00:00,
2013-11-16 23:01:00,46.3,-7.4,29.27,ESE,110,1.5,1.8,1,0.00,,,0.17,WUHU216HW,2013-11-17 05:01:00,
2013-11-16 23:06:00,46.3,-7.4,29.27,East,90,0.7,1.8,1,0.00,,,0.17,WUHU216HW,2013-11-17 05:06:00,
2013-11-16 23:30:00,46.1,-7.5,29.27,SSW,203,3.4,3.4,1,0.00,,,0.17,WUHU216HW,2013-11-17 05:30:00,
2013-11-16 23:31:00,46.1,-7.5,29.27,SSW,203,5.4,5.4,1,0.00,,,0.17,WUHU216HW,2013-11-17 05:31:00,
2013-11-16 23:32:00,46.1,-7.5,29.27,SSW,203,5.4,5.4,1,0.00,,,0.17,WUHU216HW,2013-11-17 05:32:00,
2013-11-16 23:35:00,46.1,-7.5,29.27,SSW,203,5.4,5.4,1,0.00,,,0.17,WUHU216HW,2013-11-17 05:35:00,
2013-11-16 23:36:00,46.1,-7.5,29.27,SSW,203,5.4,5.4,1,0.00,,,0.17,WUHU216HW,2013-11-17 05:36:00,
2013-11-16 23:37:00,46.1,-7.5,29.27,SSW,203,5.4,5.4,1,0.00,,,0.17,WUHU216HW,2013-11-17 05:37:00,
2013-11-16 23:40:00,46.1,-7.5,29.27,SSW,203,5.4,5.4,1,0.00,,,0.17,WUHU216HW,2013-11-17 05:40:00,